Time;durP1;ratioP1;P1;durP2;ratioP2;P2;SDS_P1;SDS_P2;PMS_P1;PMS_P2;Temp;Humidity;BMP_temperature;BMP_pressure;BME280_temperature;BME280_humidity;BME280_pressure;Samples;Min_cycle;Max_cycle;Signal;HPM_P1;HPM_P2
2023/10/01 00:01:43;;;;;;;42.03;38.35;;;14.40;99.90;;;;;;6190692;23;20008;-82
2023/10/01 00:04:10;;;;;;;33.83;30.77;;;14.40;99.90;;;;;;6190824;23;20455;-81
2023/10/01 00:06:36;;;;;;;35.53;32.45;;;14.40;99.90;;;;;;6215792;23;20016;-81
2023/10/01 00:09:05;;;;;;;34.25;31.02;;;14.30;99.90;;;;;;6190175;23;20050;-81
2023/10/01 00:11:38;;;;;;;40.85;36.92;;;14.20;99.90;;;;;;6190863;23;20008;-82
2023/10/01 00:14:08;;;;;;;44.03;40.30;;;14.30;99.90;;;;;;6190780;23;20103;-82
2023/10/01 00:16:37;;;;;;;35.40;31.95;;;14.20;99.90;;;;;;6215382;23;20058;-81
2023/10/01 00:19:06;;;;;;;37.75;34.50;;;14.20;99.90;;;;;;6190536;23;20020;-81
2023/10/01 00:21:32;;;;;;;37.28;33.70;;;14.20;99.90;;;;;;6190620;23;20012;-82
2023/10/01 00:23:57;;;;;;;39.80;36.42;;;14.10;99.90;;;;;;6214875;23;20100;-82
2023/10/01 00:26:23;;;;;;;36.03;32.72;;;14.00;99.90;;;;;;6190359;23;20087;-81
2023/10/01 00:28:52;;;;;;;33.55;30.25;;;14.10;99.90;;;;;;6190525;23;20023;-81
2023/10/01 00:31:19;;;;;;;36.05;32.28;;;14.00;99.90;;;;;;6190460;23;20024;-81
2023/10/01 00:33:48;;;;;;;35.42;32.05;;;14.00;99.90;;;;;;6190559;23;20054;-81
2023/10/01 00:36:14;;;;;;;43.45;39.67;;;14.00;99.90;;;;;;6190202;23;20107;-82
2023/10/01 00:38:40;;;;;;;38.45;34.03;;;14.00;99.90;;;;;;6189791;23;20070;-82
2023/10/01 00:41:08;;;;;;;37.08;33.53;;;13.90;99.90;;;;;;6189981;23;20020;-82
2023/10/01 00:43:35;;;;;;;35.70;32.13;;;13.80;99.90;;;;;;6215389;23;20728;-81
2023/10/01 00:46:02;;;;;;;36.40;33.28;;;13.90;99.90;;;;;;6190292;23;20008;-82
2023/10/01 00:48:29;;;;;;;37.30;33.80;;;13.90;99.90;;;;;;6190045;23;20018;-81
2023/10/01 00:50:57;;;;;;;37.45;34.03;;;14.10;99.90;;;;;;6215388;23;20485;-82
2023/10/01 00:53:23;;;;;;;34.47;30.90;;;13.90;99.90;;;;;;6190127;23;20019;-81
2023/10/01 00:55:49;;;;;;;38.95;35.15;;;14.00;99.90;;;;;;6190506;23;20054;-81
2023/10/01 00:58:15;;;;;;;37.30;33.38;;;14.00;99.90;;;;;;6190106;23;20008;-82
2023/10/01 01:00:45;;;;;;;34.00;30.65;;;14.00;99.90;;;;;;6215024;23;20031;-81
2023/10/01 01:03:18;;;;;;;39.53;34.80;;;14.00;99.90;;;;;;6215295;23;20012;-82
2023/10/01 01:05:57;;;;;;;;;;;14.00;99.90;;;;;;6189867;23;20016;-81
2023/10/01 01:08:34;;;;;;;41.10;37.05;;;14.10;99.90;;;;;;6240429;23;19962;-82
2023/10/01 01:11:01;;;;;;;39.38;35.60;;;14.00;99.90;;;;;;6189888;23;20004;-81
2023/10/01 01:13:33;;;;;;;39.85;35.80;;;14.10;99.90;;;;;;6215277;23;20062;-82
2023/10/01 01:16:00;;;;;;;44.60;40.40;;;14.00;99.90;;;;;;6198255;23;20024;-82
2023/10/01 01:18:26;;;;;;;36.60;33.13;;;14.00;99.90;;;;;;6190161;23;20012;-81
2023/10/01 01:21:05;;;;;;;38.20;34.10;;;14.30;99.90;;;;;;6214463;23;20008;-81
2023/10/01 01:23:31;;;;;;;36.45;33.15;;;14.00;99.90;;;;;;6189395;23;20008;-81
2023/10/01 01:25:57;;;;;;;44.33;40.17;;;13.90;99.90;;;;;;6189738;23;20087;-81
2023/10/01 01:28:41;;;;;;;36.53;32.60;;;13.80;99.90;;;;;;6190043;23;20012;-82
2023/10/01 01:31:10;;;;;;;43.55;39.53;;;13.80;99.90;;;;;;6189896;23;20008;-82
2023/10/01 01:33:52;;;;;;;41.90;38.10;;;13.80;99.90;;;;;;6214920;23;20016;-82
2023/10/01 01:36:19;;;;;;;44.83;40.83;;;13.70;99.90;;;;;;6189054;23;20024;-81
2023/10/01 01:39:26;;;;;;;47.53;42.75;;;13.70;99.90;;;;;;6189808;23;20046;-81
2023/10/01 01:41:52;;;;;;;46.42;41.80;;;13.60;99.90;;;;;;6219606;23;20092;-82
2023/10/01 01:44:18;;;;;;;41.15;36.85;;;13.60;99.90;;;;;;6189710;23;20027;-81
2023/10/01 01:46:49;;;;;;;41.95;37.95;;;13.60;99.90;;;;;;6189258;23;20004;-81
2023/10/01 01:49:19;;;;;;;43.60;38.88;;;13.60;99.90;;;;;;6188935;23;20421;-81
2023/10/01 01:51:59;;;;;;;46.17;41.90;;;13.40;99.90;;;;;;6189610;23;20012;-82
2023/10/01 01:54:34;;;;;;;38.25;34.28;;;13.50;99.90;;;;;;6189607;23;20012;-81
2023/10/01 09:43:30;;;;;;;22.75;18.60;;;19.60;99.90;;;;;;6148829;23;1324214;-86
2023/10/01 09:45:57;;;;;;;23.63;19.02;;;19.60;99.90;;;;;;6149036;23;20543;-86
2023/10/01 09:48:33;;;;;;;21.75;16.65;;;19.70;99.90;;;;;;6124324;23;20017;-87
2023/10/01 09:51:08;;;;;;;25.45;17.92;;;19.70;99.90;;;;;;6148862;23;20018;-87
2023/10/01 09:53:54;;;;;;;20.90;15.02;;;19.80;99.90;;;;;;6123448;23;20072;-87
2023/10/01 09:59:11;;;;;;;20.10;16.45;;;19.90;99.90;;;;;;6147281;23;20022;-85
2023/10/01 10:01:42;;;;;;;19.83;15.95;;;20.00;99.90;;;;;;6125928;23;20088;-89
2023/10/01 10:04:12;;;;;;;20.88;16.58;;;19.90;99.90;;;;;;6122809;23;20013;-85
2023/10/01 10:06:39;;;;;;;22.95;19.08;;;19.90;99.90;;;;;;6122429;23;20388;-87
2023/10/01 10:09:10;;;;;;;20.70;17.05;;;19.90;99.90;;;;;;6123055;23;20020;-86
2023/10/01 10:11:38;;;;;;;24.45;19.95;;;19.90;99.90;;;;;;6147431;23;20014;-86
2023/10/01 10:14:25;;;;;;;24.77;21.63;;;19.80;99.90;;;;;;6123208;23;20013;-86
2023/10/01 10:17:18;;;;;;;23.15;17.20;;;19.80;99.90;;;;;;6148990;23;20021;-87
2023/10/01 10:20:25;;;;;;;21.83;17.02;;;19.70;99.90;;;;;;6126938;23;20064;-87
2023/10/01 10:23:29;;;;;;;25.60;19.50;;;19.80;99.90;;;;;;6127184;23;20075;-87
2023/10/01 10:26:12;;;;;;;22.02;16.02;;;19.90;99.90;;;;;;6091482;23;20097;-86
2023/10/01 10:28:55;;;;;;;21.55;14.93;;;20.10;99.90;;;;;;6126201;23;20009;-87
2023/10/01 10:31:32;;;;;;;21.63;17.77;;;20.20;99.90;;;;;;6125744;23;20177;-87
2023/10/01 10:34:36;;;;;;;20.20;15.27;;;20.20;99.90;;;;;;6125177;23;20029;-87
2023/10/01 10:37:06;;;;;;;22.85;17.02;;;20.30;99.90;;;;;;6126289;23;20045;-87
2023/10/01 10:39:48;;;;;;;21.20;15.55;;;20.40;99.90;;;;;;6126036;23;20064;-87
2023/10/01 10:42:33;;;;;;;21.25;14.13;;;20.50;99.90;;;;;;6149963;23;20349;-86
2023/10/01 10:45:19;;;;;;;22.27;15.02;;;20.50;99.90;;;;;;6124194;23;20025;-84
2023/10/01 10:47:58;;;;;;;20.02;15.98;;;20.50;99.90;;;;;;6148497;23;20018;-83
2023/10/01 10:50:47;;;;;;;24.42;16.00;;;20.50;99.90;;;;;;6149272;23;20055;-83
2023/10/01 10:53:37;;;;;;;23.00;16.25;;;20.60;99.90;;;;;;6124408;23;20020;-84
2023/10/01 10:56:08;;;;;;;21.27;16.42;;;20.60;99.90;;;;;;6149211;23;20348;-83
2023/10/01 10:59:01;;;;;;;23.70;16.27;;;20.60;99.90;;;;;;6120289;23;20014;-80
2023/10/01 11:01:43;;;;;;;24.02;15.63;;;20.60;99.90;;;;;;6122514;23;20024;-81
2023/10/01 11:04:09;;;;;;;19.40;15.10;;;20.60;99.90;;;;;;6120818;23;20860;-80
2023/10/01 11:06:42;;;;;;;22.77;16.83;;;20.70;99.90;;;;;;6145308;23;20179;-81
2023/10/01 11:12:21;;;;;;;25.55;16.25;;;20.70;99.90;;;;;;6139143;23;20077;-80
2023/10/01 11:17:42;;;;;;;21.75;15.75;;;20.90;99.90;;;;;;6146304;23;20029;-81
2023/10/01 11:20:22;;;;;;;26.17;17.67;;;21.00;99.90;;;;;;6121599;23;20072;-79
2023/10/01 11:22:49;;;;;;;23.98;16.17;;;21.10;99.90;;;;;;6121660;23;20078;-80
2023/10/01 11:25:15;;;;;;;24.60;16.45;;;21.20;99.90;;;;;;6146022;23;20096;-81
2023/10/01 11:28:04;;;;;;;21.35;17.75;;;21.20;99.90;;;;;;6118961;23;20113;-82
2023/10/01 11:30:34;;;;;;;21.35;16.08;;;21.20;99.90;;;;;;6121487;23;20005;-84
2023/10/01 11:33:13;;;;;;;21.30;17.60;;;21.20;99.90;;;;;;6146967;23;20014;-81
2023/10/01 11:35:59;;;;;;;22.83;18.63;;;21.20;99.90;;;;;;6121129;23;20053;-81
2023/10/01 11:38:26;;;;;;;21.00;16.80;;;21.30;99.90;;;;;;6122191;23;20013;-82
2023/10/01 11:41:07;;;;;;;19.92;17.20;;;21.30;99.90;;;;;;6146193;23;20018;-80
2023/10/01 11:43:42;;;;;;;21.27;15.80;;;21.30;99.90;;;;;;6120111;23;20028;-80
2023/10/01 11:46:18;;;;;;;23.70;17.05;;;21.40;99.90;;;;;;6146180;23;20440;-80
2023/10/01 11:49:04;;;;;;;20.15;15.77;;;21.40;99.90;;;;;;6121167;23;20014;-80
2023/10/01 11:51:43;;;;;;;21.80;16.20;;;21.40;99.90;;;;;;6120130;23;20013;-81
2023/10/01 11:54:10;;;;;;;26.42;18.40;;;21.50;99.90;;;;;;6121263;23;20037;-80
2023/10/01 11:56:47;;;;;;;27.15;18.25;;;21.50;99.90;;;;;;6144990;23;20480;-80
2023/10/01 11:59:19;;;;;;;23.88;15.60;;;21.50;99.90;;;;;;6121264;23;20198;-79
2023/10/01 12:01:51;;;;;;;26.13;17.83;;;21.50;99.90;;;;;;6145785;23;20018;-80
2023/10/01 12:04:24;;;;;;;23.42;16.35;;;21.50;99.90;;;;;;6120505;23;20476;-80
2023/10/01 12:06:51;;;;;;;25.10;17.45;;;21.60;99.90;;;;;;6121610;23;20539;-81
2023/10/01 12:09:18;;;;;;;22.98;17.70;;;21.60;99.90;;;;;;6120105;23;20013;-80
2023/10/01 12:12:02;;;;;;;22.45;17.45;;;21.70;99.90;;;;;;6117903;23;20014;-81
2023/10/01 12:14:28;;;;;;;21.30;16.85;;;21.80;99.90;;;;;;6118901;23;20093;-80
2023/10/01 12:16:56;;;;;;;23.67;15.15;;;21.80;99.90;;;;;;6144018;23;20017;-79
2023/10/01 12:19:25;;;;;;;28.33;15.43;;;21.90;99.90;;;;;;6144083;23;20056;-79
2023/10/01 12:22:06;;;;;;;21.95;16.17;;;21.80;99.90;;;;;;6120108;23;20358;-81
2023/10/01 12:24:45;;;;;;;22.90;14.98;;;21.80;99.90;;;;;;6145029;23;20010;-81
2023/10/01 12:27:37;;;;;;;21.58;13.82;;;21.80;99.90;;;;;;6120243;23;20061;-79
2023/10/01 12:29:57;;;;;;;22.52;14.82;;;21.70;99.90;;;;;;6146079;23;20073;-80
2023/10/01 12:32:37;;;;;;;21.95;16.52;;;21.70;99.90;;;;;;6119930;23;20515;-80
2023/10/01 12:35:18;;;;;;;18.83;13.13;;;21.80;99.90;;;;;;6121044;23;20314;-80
2023/10/01 12:37:44;;;;;;;24.60;16.08;;;21.80;99.90;;;;;;6146317;23;20715;-78
2023/10/01 12:40:14;;;;;;;20.80;14.68;;;21.90;99.90;;;;;;6120641;23;20527;-79
2023/10/01 12:42:40;;;;;;;20.17;16.02;;;22.00;99.90;;;;;;6144316;23;20013;-79
2023/10/01 12:45:19;;;;;;;22.38;14.35;;;22.10;99.90;;;;;;6120968;23;20017;-80
2023/10/01 12:47:51;;;;;;;20.50;13.52;;;22.20;99.90;;;;;;6145462;23;20014;-79
2023/10/01 12:50:26;;;;;;;19.42;12.13;;;22.30;99.90;;;;;;6146097;23;20010;-80
2023/10/01 12:53:18;;;;;;;24.90;16.48;;;22.30;99.90;;;;;;6121724;23;20076;-82
2023/10/01 12:55:39;;;;;;;20.23;12.50;;;22.30;99.90;;;;;;6144771;23;20426;-80
2023/10/01 12:58:06;;;;;;;25.10;14.18;;;22.40;99.90;;;;;;6145703;23;20020;-81
2023/10/01 13:00:45;;;;;;;23.50;15.45;;;22.30;99.90;;;;;;6122999;23;20009;-83
2023/10/01 13:03:20;;;;;;;20.23;13.93;;;22.30;99.90;;;;;;6122719;23;20445;-82
2023/10/01 13:05:47;;;;;;;20.83;15.10;;;22.30;99.90;;;;;;6123230;23;20507;-82
2023/10/01 13:08:27;;;;;;;20.45;13.15;;;22.30;99.90;;;;;;6147521;23;20059;-83
2023/10/01 13:10:54;;;;;;;20.15;14.55;;;22.40;99.90;;;;;;6147120;23;20013;-82
2023/10/01 13:13:20;;;;;;;18.20;11.18;;;22.40;99.90;;;;;;6122707;23;20096;-81
2023/10/01 13:15:54;;;;;;;21.65;13.35;;;22.50;99.90;;;;;;6122419;23;20281;-81
2023/10/01 13:18:22;;;;;;;22.58;13.27;;;22.60;99.90;;;;;;6147798;23;20058;-82
2023/10/01 13:23:31;;;;;;;23.48;13.45;;;22.80;99.90;;;;;;6147228;23;20055;-81
2023/10/01 13:26:05;;;;;;;18.48;11.77;;;22.80;99.90;;;;;;6122186;23;20052;-82
2023/10/01 13:28:49;;;;;;;24.25;13.63;;;22.90;99.90;;;;;;6122016;23;20041;-81
2023/10/01 13:34:11;;;;;;;21.85;15.07;;;23.10;99.90;;;;;;6146720;23;20022;-81
2023/10/01 13:37:11;;;;;;;19.20;13.85;;;23.10;99.90;;;;;;6122841;23;20009;-82
2023/10/01 14:09:48;;;;;;;27.83;13.00;;;23.10;99.90;;;;;;6147269;23;20071;-81
2023/10/01 14:15:24;;;;;;;19.63;13.48;;;23.10;99.90;;;;;;6146917;23;20078;-81
2023/10/01 14:17:53;;;;;;;19.08;10.95;;;23.00;99.90;;;;;;6122928;23;20061;-81
2023/10/01 14:20:38;;;;;;;20.92;11.80;;;23.10;99.90;;;;;;6147370;23;20009;-81
2023/10/01 14:23:23;;;;;;;20.95;13.25;;;23.00;99.90;;;;;;6121973;23;20025;-81
2023/10/01 14:26:10;;;;;;;22.55;12.95;;;22.80;99.90;;;;;;6122728;23;20626;-81
2023/10/01 14:28:35;;;;;;;21.42;11.63;;;22.70;99.90;;;;;;6122970;23;20315;-81
2023/10/01 14:31:05;;;;;;;22.02;13.20;;;22.70;99.90;;;;;;6147191;23;20024;-81
2023/10/01 14:33:35;;;;;;;18.58;12.63;;;22.60;99.90;;;;;;6146703;23;20021;-81
2023/10/01 14:36:04;;;;;;;21.63;12.63;;;22.60;99.90;;;;;;6122771;23;20025;-81
2023/10/01 14:38:42;;;;;;;20.58;12.90;;;22.60;99.90;;;;;;6121976;23;20032;-81
2023/10/01 14:41:10;;;;;;;24.35;12.88;;;22.60;99.90;;;;;;6147563;23;20014;-80
2023/10/01 14:43:41;;;;;;;18.60;11.40;;;22.50;99.90;;;;;;6121872;23;20010;-80
2023/10/01 14:46:13;;;;;;;22.77;12.98;;;22.40;99.90;;;;;;6122921;23;20032;-81
2023/10/01 14:48:40;;;;;;;22.30;12.93;;;22.40;99.90;;;;;;6122460;23;20017;-81
2023/10/01 14:51:06;;;;;;;17.52;10.57;;;22.40;99.90;;;;;;6147748;23;20036;-81
2023/10/01 14:53:36;;;;;;;20.75;12.02;;;22.40;99.90;;;;;;6122535;23;20448;-81
2023/10/01 14:56:04;;;;;;;21.05;12.20;;;22.30;99.90;;;;;;6147467;23;20064;-80
2023/10/01 14:58:33;;;;;;;23.10;13.13;;;22.30;99.90;;;;;;6147645;23;20013;-80
2023/10/01 15:00:59;;;;;;;18.92;11.50;;;22.20;99.90;;;;;;6123263;23;20405;-81
2023/10/01 15:03:33;;;;;;;19.02;11.23;;;22.20;99.90;;;;;;6123222;23;20477;-81
2023/10/01 15:06:08;;;;;;;20.00;12.43;;;22.20;99.90;;;;;;6124618;23;20028;-81
2023/10/01 15:08:35;;;;;;;23.85;13.18;;;22.20;99.90;;;;;;6123801;23;20436;-82
2023/10/01 15:11:14;;;;;;;21.90;14.43;;;22.20;99.90;;;;;;6126674;23;20022;-81
2023/10/01 15:13:47;;;;;;;19.88;12.50;;;22.20;99.90;;;;;;6123700;23;20384;-79
2023/10/01 15:16:15;;;;;;;21.42;15.00;;;22.20;99.90;;;;;;6124125;23;20020;-80
2023/10/01 15:18:46;;;;;;;22.42;14.77;;;22.30;99.90;;;;;;6124043;23;20079;-80
2023/10/01 15:21:19;;;;;;;26.27;13.10;;;22.30;99.90;;;;;;6123262;23;20010;-80
2023/10/01 15:23:50;;;;;;;20.30;12.98;;;22.30;99.90;;;;;;6148600;23;20097;-80
2023/10/01 15:26:19;;;;;;;22.55;14.73;;;22.30;99.90;;;;;;6123995;23;20020;-80
2023/10/01 15:28:51;;;;;;;22.13;14.20;;;22.30;99.90;;;;;;6148419;23;20097;-80
2023/10/01 15:31:31;;;;;;;21.67;12.75;;;22.20;99.90;;;;;;6124113;23;20053;-80
2023/10/01 15:34:15;;;;;;;21.45;14.48;;;22.10;99.90;;;;;;6123528;23;20464;-79
2023/10/01 15:36:46;;;;;;;20.55;13.68;;;22.00;99.90;;;;;;6123297;23;20067;-81
2023/10/01 15:42:11;;;;;;;18.83;12.27;;;21.90;99.90;;;;;;6148137;23;20021;-81
2023/10/01 15:44:53;;;;;;;22.05;14.27;;;21.90;99.90;;;;;;6123049;23;20017;-82
2023/10/01 15:47:45;;;;;;;27.95;16.00;;;21.80;99.90;;;;;;6123490;23;20017;-82
2023/10/01 15:50:16;;;;;;;22.00;17.17;;;21.80;99.90;;;;;;6147101;23;20069;-81
2023/10/01 15:52:46;;;;;;;22.63;14.88;;;21.70;99.90;;;;;;6147900;23;20021;-81
2023/10/01 15:55:19;;;;;;;22.48;15.75;;;21.60;99.90;;;;;;6122636;23;20016;-81
2023/10/01 15:58:02;;;;;;;21.67;15.48;;;21.50;99.90;;;;;;6123434;23;20079;-81
2023/10/01 16:00:34;;;;;;;22.88;14.80;;;21.40;99.90;;;;;;6123279;23;20009;-80
2023/10/01 16:03:02;;;;;;;24.08;19.35;;;21.40;99.90;;;;;;6146979;23;20010;-81
2023/10/01 16:05:42;;;;;;;22.02;17.15;;;21.30;99.90;;;;;;6146698;23;20017;-80
2023/10/01 16:08:17;;;;;;;24.80;17.60;;;21.30;99.90;;;;;;6151336;23;20020;-81
2023/10/01 16:10:44;;;;;;;22.38;19.27;;;21.20;99.90;;;;;;6123616;23;20009;-81
2023/10/01 16:13:17;;;;;;;24.08;16.77;;;21.10;99.90;;;;;;6122881;23;20013;-82
2023/10/01 16:15:48;;;;;;;21.20;15.38;;;21.10;99.90;;;;;;6123605;23;20024;-81
2023/10/01 16:18:15;;;;;;;22.40;16.58;;;21.00;99.90;;;;;;6123193;23;20028;-80
2023/10/01 16:20:42;;;;;;;22.20;17.30;;;21.00;99.90;;;;;;6147549;23;20055;-81
2023/10/01 16:23:14;;;;;;;23.38;18.05;;;21.00;99.90;;;;;;6145949;23;20013;-81
2023/10/01 16:25:50;;;;;;;23.67;17.90;;;20.90;99.90;;;;;;6123291;23;20017;-81
2023/10/01 16:28:19;;;;;;;22.05;17.52;;;20.80;99.90;;;;;;6147601;23;20060;-82
2023/10/01 16:31:02;;;;;;;22.05;19.63;;;20.70;99.90;;;;;;6122950;23;20302;-82
2023/10/01 16:33:31;;;;;;;27.20;22.20;;;20.70;99.90;;;;;;6121673;23;20478;-81
2023/10/01 16:36:01;;;;;;;28.38;22.48;;;20.60;99.90;;;;;;6147502;23;20456;-81
2023/10/01 16:38:30;;;;;;;30.92;27.75;;;20.50;99.90;;;;;;6122863;23;20045;-81
2023/10/01 16:40:55;;;;;;;29.85;25.77;;;20.40;99.90;;;;;;6123768;23;20010;-81
2023/10/01 16:43:24;;;;;;;25.48;22.77;;;20.40;99.90;;;;;;6124741;23;20013;-82
2023/10/01 16:45:50;;;;;;;24.08;21.48;;;20.30;99.90;;;;;;6129225;23;20514;-82
2023/10/01 16:48:29;;;;;;;20.10;17.88;;;20.20;99.90;;;;;;6127049;23;20495;-82
2023/10/01 16:51:03;;;;;;;24.85;20.13;;;20.20;99.90;;;;;;6127432;23;20013;-80
2023/10/01 16:53:38;;;;;;;25.58;22.05;;;20.20;99.90;;;;;;6126797;23;20351;-80
2023/10/01 16:56:12;;;;;;;27.33;24.70;;;20.20;99.90;;;;;;6126418;23;20005;-79
2023/10/01 16:58:40;;;;;;;24.58;22.13;;;20.10;99.90;;;;;;6152374;23;20090;-82
2023/10/01 17:01:25;;;;;;;26.70;23.30;;;20.20;99.90;;;;;;6127421;23;20009;-81
2023/10/01 17:04:03;;;;;;;25.75;22.33;;;20.10;99.90;;;;;;6127011;23;20009;-81
2023/10/01 17:06:34;;;;;;;28.17;25.40;;;20.00;99.90;;;;;;6127584;23;20021;-81
2023/10/01 17:09:05;;;;;;;27.08;24.17;;;20.00;99.90;;;;;;6152213;23;20020;-82
2023/10/01 17:11:31;;;;;;;27.15;24.45;;;19.90;99.90;;;;;;6127227;23;20028;-82
2023/10/01 17:14:11;;;;;;;23.05;20.15;;;19.90;99.90;;;;;;6126565;23;20009;-81
2023/10/01 17:16:47;;;;;;;23.77;21.25;;;19.80;99.90;;;;;;6151628;23;20040;-82
2023/10/01 17:19:14;;;;;;;28.27;25.27;;;19.80;99.90;;;;;;6125794;23;20013;-82
2023/10/01 17:21:46;;;;;;;28.30;25.50;;;19.70;99.90;;;;;;6126942;23;20013;-80
2023/10/01 17:24:24;;;;;;;25.35;19.33;;;19.60;99.90;;;;;;6150066;23;20009;-81
2023/10/01 17:26:51;;;;;;;26.73;24.02;;;19.60;99.90;;;;;;6151612;23;20035;-81
2023/10/01 17:29:29;;;;;;;28.92;26.10;;;19.40;99.90;;;;;;6151837;23;20024;-82
2023/10/01 17:31:58;;;;;;;27.17;24.48;;;19.30;99.90;;;;;;6151911;23;20013;-82
2023/10/01 17:34:27;;;;;;;26.67;24.00;;;19.20;99.90;;;;;;6152017;23;20013;-84
2023/10/01 17:37:04;;;;;;;27.10;23.92;;;19.10;99.90;;;;;;6153947;23;20047;-82
2023/10/01 17:39:30;;;;;;;26.02;23.33;;;19.00;99.90;;;;;;6129288;23;20052;-83
2023/10/01 17:41:59;;;;;;;24.65;22.02;;;19.00;99.90;;;;;;6127818;23;20027;-83
2023/10/01 17:44:27;;;;;;;23.90;21.02;;;19.00;99.90;;;;;;6152940;23;20048;-84
2023/10/01 17:46:59;;;;;;;25.67;21.95;;;18.80;99.90;;;;;;6150380;23;20028;-84
2023/10/01 17:49:28;;;;;;;28.07;21.87;;;18.70;99.90;;;;;;6154283;23;20053;-83
2023/10/01 17:51:59;;;;;;;27.60;21.98;;;18.70;99.90;;;;;;6130761;23;20028;-83
2023/10/01 17:54:28;;;;;;;26.00;20.77;;;18.60;99.90;;;;;;6130329;23;20523;-83
2023/10/01 17:56:56;;;;;;;27.15;22.27;;;18.60;99.90;;;;;;6130546;23;20024;-83
2023/10/01 17:59:26;;;;;;;27.80;21.58;;;18.60;99.90;;;;;;6154520;23;20012;-83
2023/10/01 18:02:04;;;;;;;24.92;19.67;;;18.60;99.90;;;;;;6129536;23;20096;-83
2023/10/01 18:04:36;;;;;;;25.10;20.92;;;18.70;99.90;;;;;;6130558;23;20011;-83
2023/10/01 18:07:04;;;;;;;27.48;19.63;;;18.60;99.90;;;;;;6129606;23;20072;-84
2023/10/01 18:09:31;;;;;;;23.35;19.63;;;18.70;99.90;;;;;;6130632;23;20017;-83
2023/10/01 18:12:02;;;;;;;24.25;21.10;;;18.70;99.90;;;;;;6130218;23;20028;-83
2023/10/01 18:14:35;;;;;;;25.55;18.48;;;18.60;99.90;;;;;;6129514;23;20456;-83
2023/10/01 18:17:03;;;;;;;24.25;21.33;;;18.70;99.90;;;;;;6128995;23;20017;-84
2023/10/01 18:19:32;;;;;;;23.73;21.00;;;18.70;99.90;;;;;;6130342;23;20005;-83
2023/10/01 18:22:03;;;;;;;23.05;17.63;;;18.70;99.90;;;;;;6155163;23;20013;-83
2023/10/01 18:24:30;;;;;;;21.67;17.85;;;18.70;99.90;;;;;;6130629;23;20068;-83
2023/10/01 18:27:05;;;;;;;29.17;19.17;;;18.70;99.90;;;;;;6130005;23;20056;-83
2023/10/01 18:29:34;;;;;;;23.05;19.13;;;18.70;99.90;;;;;;6130659;23;20088;-83
2023/10/01 18:32:00;;;;;;;24.45;19.25;;;18.70;99.90;;;;;;6130284;23;20024;-83
2023/10/01 18:34:30;;;;;;;22.88;19.25;;;18.70;99.90;;;;;;6131041;23;20005;-83
2023/10/01 18:37:04;;;;;;;22.05;18.33;;;18.70;99.90;;;;;;6130793;23;20053;-83
2023/10/01 18:39:32;;;;;;;24.60;18.65;;;18.70;99.90;;;;;;6132200;23;20116;-82
2023/10/01 18:42:04;;;;;;;24.17;18.73;;;18.70;99.90;;;;;;6132309;23;20013;-83
2023/10/01 18:44:30;;;;;;;25.23;18.70;;;18.70;99.90;;;;;;6155108;23;20017;-83
2023/10/01 18:46:57;;;;;;;26.48;18.40;;;18.70;99.90;;;;;;6131526;23;20017;-82
2023/10/01 18:49:28;;;;;;;25.00;18.60;;;18.70;99.90;;;;;;6130661;23;20009;-82
2023/10/01 18:51:55;;;;;;;24.20;18.05;;;18.70;99.90;;;;;;6130732;23;20017;-83
2023/10/01 18:54:25;;;;;;;22.10;17.45;;;18.70;99.90;;;;;;6154617;23;20041;-82
2023/10/01 18:56:55;;;;;;;23.52;18.35;;;18.70;99.90;;;;;;6130154;23;20013;-83
2023/10/01 18:59:20;;;;;;;23.55;19.50;;;18.60;99.90;;;;;;6129623;23;20009;-82
2023/10/01 19:01:46;;;;;;;25.65;20.15;;;18.60;99.90;;;;;;6130704;23;20436;-82
2023/10/01 19:04:15;;;;;;;23.52;19.73;;;18.60;99.90;;;;;;6130024;23;20020;-83
2023/10/01 19:06:41;;;;;;;20.58;16.05;;;18.60;99.90;;;;;;6130773;23;20021;-83
2023/10/01 19:09:07;;;;;;;25.50;17.88;;;18.60;99.90;;;;;;6129683;23;20036;-83
2023/10/01 19:11:34;;;;;;;23.70;18.65;;;18.60;99.90;;;;;;6130610;23;20012;-82
2023/10/01 19:14:01;;;;;;;24.92;17.17;;;18.60;99.90;;;;;;6153922;23;20108;-83
2023/10/01 19:16:27;;;;;;;23.98;20.63;;;18.50;99.90;;;;;;6154994;23;20184;-82
2023/10/01 19:18:56;;;;;;;23.17;16.98;;;18.50;99.90;;;;;;6154427;23;20013;-83
2023/10/01 19:21:22;;;;;;;24.70;19.45;;;18.60;99.90;;;;;;6130435;23;20037;-83
2023/10/01 19:23:54;;;;;;;19.95;17.10;;;18.50;99.90;;;;;;6132077;23;20017;-84
2023/10/01 19:26:22;;;;;;;22.43;19.50;;;18.50;99.90;;;;;;6157575;23;20020;-83
2023/10/01 19:28:47;;;;;;;23.27;20.42;;;18.50;99.90;;;;;;6132009;23;20032;-83
2023/10/01 19:31:14;;;;;;;29.45;19.35;;;18.50;99.90;;;;;;6132028;23;20013;-83
2023/10/01 19:33:44;;;;;;;24.60;18.10;;;18.40;99.90;;;;;;6131355;23;20009;-84
2023/10/01 19:36:10;;;;;;;25.52;17.13;;;18.40;99.90;;;;;;6131326;23;20149;-84
2023/10/01 19:38:39;;;;;;;23.70;17.92;;;18.40;99.90;;;;;;6132276;23;20084;-83
2023/10/01 19:41:08;;;;;;;26.02;20.30;;;18.40;99.90;;;;;;6133027;23;20009;-83
2023/10/01 19:43:38;;;;;;;24.45;21.80;;;18.30;99.90;;;;;;6131413;23;20019;-83
2023/10/01 19:46:07;;;;;;;26.95;17.83;;;18.40;99.90;;;;;;6132236;23;20462;-84
2023/10/01 19:48:34;;;;;;;24.27;17.50;;;18.30;99.90;;;;;;6157309;23;20440;-84
2023/10/01 19:51:00;;;;;;;20.98;17.77;;;18.30;99.90;;;;;;6131717;23;20009;-83
2023/10/01 19:53:30;;;;;;;21.25;17.63;;;18.30;99.90;;;;;;6132217;23;20027;-84
2023/10/01 19:55:58;;;;;;;21.85;19.45;;;18.30;99.90;;;;;;6156985;23;20044;-83
2023/10/01 19:58:32;;;;;;;26.27;17.83;;;18.30;99.90;;;;;;6134834;23;20653;-84
2023/10/01 20:01:15;;;;;;;23.58;17.33;;;18.30;99.90;;;;;;6133509;23;20005;-83
2023/10/01 20:03:55;;;;;;;30.40;21.15;;;18.30;99.90;;;;;;6131605;23;20299;-83
2023/10/01 20:06:22;;;;;;;25.63;20.42;;;18.30;99.90;;;;;;6131561;23;20021;-83
2023/10/01 20:08:55;;;;;;;25.45;17.73;;;18.30;99.90;;;;;;6131150;23;20009;-83
2023/10/01 20:11:22;;;;;;;29.48;18.05;;;18.30;99.90;;;;;;6131390;23;20062;-83
2023/10/01 20:13:49;;;;;;;26.02;19.30;;;18.30;99.90;;;;;;6155808;23;20040;-83
2023/10/01 20:16:20;;;;;;;28.70;19.50;;;18.30;99.90;;;;;;6155122;23;20017;-82
2023/10/01 20:18:46;;;;;;;25.98;18.13;;;18.30;99.90;;;;;;6155502;23;20513;-83
2023/10/01 20:21:22;;;;;;;24.90;19.65;;;18.30;99.90;;;;;;6130259;23;20055;-83
2023/10/01 20:23:51;;;;;;;28.00;17.98;;;18.30;99.90;;;;;;6131179;23;20196;-83
2023/10/01 20:26:20;;;;;;;24.20;17.80;;;18.30;99.90;;;;;;6154812;23;20092;-83
2023/10/01 20:28:50;;;;;;;23.92;17.27;;;18.30;99.90;;;;;;6155241;23;20116;-83
2023/10/01 20:31:17;;;;;;;24.92;19.23;;;18.30;99.90;;;;;;6153850;23;20216;-83
2023/10/01 20:33:51;;;;;;;23.27;18.73;;;18.30;99.90;;;;;;6131135;23;20024;-84
2023/10/01 20:36:25;;;;;;;20.00;16.33;;;18.30;99.90;;;;;;6155670;23;20009;-84
2023/10/01 20:38:53;;;;;;;26.05;17.63;;;18.30;99.90;;;;;;6133165;23;20013;-84
2023/10/01 20:41:21;;;;;;;26.25;18.63;;;18.30;99.90;;;;;;6131771;23;20470;-83
2023/10/01 20:43:55;;;;;;;24.77;19.02;;;18.20;99.90;;;;;;6157002;23;20219;-84
2023/10/01 20:46:21;;;;;;;27.48;20.30;;;18.20;99.90;;;;;;6132155;23;20021;-83
2023/10/01 20:48:52;;;;;;;23.02;16.38;;;18.20;99.90;;;;;;6132724;23;20157;-83
2023/10/01 20:51:31;;;;;;;24.33;17.25;;;18.20;99.90;;;;;;6132211;23;20009;-84
2023/10/01 20:54:05;;;;;;;22.73;19.38;;;18.20;99.90;;;;;;6157283;23;20005;-84
2023/10/01 20:56:35;;;;;;;25.67;17.00;;;18.10;99.90;;;;;;6131852;23;20059;-84
2023/10/01 20:59:12;;;;;;;22.23;17.88;;;18.10;99.90;;;;;;6132921;23;20452;-84
2023/10/01 21:01:46;;;;;;;21.40;17.92;;;18.10;99.90;;;;;;6132498;23;20044;-83
2023/10/01 21:04:26;;;;;;;26.35;21.20;;;18.10;99.90;;;;;;6132108;23;20013;-84
2023/10/01 21:07:02;;;;;;;21.60;17.33;;;18.10;99.90;;;;;;6132877;23;20013;-84
2023/10/01 21:09:37;;;;;;;25.98;18.83;;;18.10;99.90;;;;;;6132074;23;20009;-83
2023/10/01 21:12:06;;;;;;;23.45;18.02;;;18.10;99.90;;;;;;6157013;23;20013;-83
2023/10/01 21:14:36;;;;;;;26.70;22.92;;;18.10;99.90;;;;;;6132700;23;20043;-83
2023/10/01 21:17:20;;;;;;;25.13;17.45;;;18.10;99.90;;;;;;6131678;23;20020;-84
2023/10/01 21:19:52;;;;;;;;;;;18.10;99.90;;;;;;6132695;23;20009;-83
2023/10/01 21:22:19;;;;;;;22.58;18.90;;;18.10;99.90;;;;;;6154125;23;19912;-84
2023/10/01 21:24:45;;;;;;;22.33;19.77;;;18.10;99.90;;;;;;6129253;23;20013;-84
2023/10/01 21:27:14;;;;;;;25.67;19.88;;;18.10;99.90;;;;;;6129676;23;20052;-84
2023/10/01 21:29:46;;;;;;;21.27;18.80;;;18.00;99.90;;;;;;6129040;23;20020;-83
2023/10/01 21:32:16;;;;;;;26.02;18.58;;;18.00;99.90;;;;;;6129216;23;20013;-84